Terminal Aerodrome Forecast
Issued by NWS

Current Version | Previous Version | Graphics & Text | Print | Product List | Glossary On
Versions: 1 2 3 4 5 6 7 8 9 10 11 12 13 14 15 16 17 18 19 20 21
000
FTUS41 KILN 230500
TAFLCK
TAF
KLCK 230531Z 2306/2406 31005KT P6SM SCT035
     FM230800 34004KT P6SM BKN035
     FM231000 VRB03KT P6SM SCT035
     FM231400 33005KT P6SM SCT250
     FM240400 VRB03KT P6SM BKN250=

USA.gov is the U.S. government's official web portal to all federal, state and local government web resources and services.